Time;durP1;ratioP1;P1;durP2;ratioP2;P2;SDS_P1;SDS_P2;PMS_P1;PMS_P2;Temp;Humidity;BMP_temperature;BMP_pressure;BME280_temperature;BME280_humidity;BME280_pressure;Samples;Min_cycle;Max_cycle;Signal;HPM_P1;HPM_P2
2021/12/15 00:02:20;;;;;;;43.78;21.73;;;6.30;60.20;;;;;;5034618;28;20021;-81
2021/12/15 00:04:52;;;;;;;44.38;21.75;;;6.30;60.20;;;;;;5034049;28;20036;-80
2021/12/15 00:07:24;;;;;;;41.70;20.50;;;6.30;60.20;;;;;;5019535;28;20041;-80
2021/12/15 00:09:50;;;;;;;44.78;21.35;;;6.30;60.10;;;;;;5034114;28;20044;-81
2021/12/15 00:12:17;;;;;;;46.78;21.27;;;6.30;60.10;;;;;;5034639;28;20048;-81
2021/12/15 00:14:44;;;;;;;41.15;20.33;;;6.30;60.20;;;;;;5019429;28;20443;-80
2021/12/15 00:17:10;;;;;;;41.78;20.45;;;6.30;60.40;;;;;;5017885;28;20038;-80
2021/12/15 00:19:37;;;;;;;42.03;21.67;;;6.30;60.20;;;;;;5018604;28;20108;-81
2021/12/15 00:22:04;;;;;;;43.20;20.95;;;6.30;60.20;;;;;;5033880;28;20033;-80
2021/12/15 00:24:30;;;;;;;41.47;21.10;;;6.30;60.20;;;;;;5033948;28;20033;-80
2021/12/15 00:26:57;;;;;;;43.67;21.25;;;6.30;60.20;;;;;;5033301;28;20041;-80
2021/12/15 00:29:24;;;;;;;43.28;21.17;;;6.30;60.20;;;;;;5016285;28;20389;-80
2021/12/15 00:31:51;;;;;;;43.63;20.65;;;6.30;60.10;;;;;;5033809;28;20041;-80
2021/12/15 00:34:17;;;;;;;41.15;21.60;;;6.30;60.20;;;;;;5016656;28;20041;-80
2021/12/15 00:36:44;;;;;;;39.05;19.85;;;6.30;60.20;;;;;;5017894;28;20045;-81
2021/12/15 00:39:13;;;;;;;40.28;19.98;;;6.30;60.30;;;;;;5031702;28;20032;-80
2021/12/15 00:41:40;;;;;;;39.80;21.00;;;6.30;60.30;;;;;;5014408;28;20034;-81
2021/12/15 00:44:07;;;;;;;42.65;21.15;;;6.30;60.30;;;;;;5033902;28;20043;-80
2021/12/15 00:46:34;;;;;;;40.85;19.48;;;6.30;60.20;;;;;;5014167;28;20030;-81
2021/12/15 00:49:00;;;;;;;37.53;18.80;;;6.30;60.20;;;;;;5034826;28;20413;-80
2021/12/15 00:51:27;;;;;;;41.40;20.73;;;6.30;60.20;;;;;;5034298;28;20164;-81
2021/12/15 00:53:53;;;;;;;40.80;20.38;;;6.30;60.20;;;;;;5015210;28;20033;-80
2021/12/15 00:56:19;;;;;;;37.80;18.67;;;6.30;60.20;;;;;;5014091;28;20041;-80
2021/12/15 00:58:45;;;;;;;42.08;19.77;;;6.30;60.20;;;;;;5019651;28;20029;-80
2021/12/15 01:01:11;;;;;;;39.70;19.90;;;6.30;60.20;;;;;;5013589;28;20093;-81
2021/12/15 01:03:38;;;;;;;36.03;19.05;;;6.30;60.20;;;;;;5032136;28;20029;-81
2021/12/15 01:06:10;;;;;;;37.50;19.65;;;6.30;60.00;;;;;;5033107;28;20033;-80
2021/12/15 01:08:42;;;;;;;35.95;18.17;;;6.30;60.20;;;;;;5034162;28;20120;-80
2021/12/15 01:22:12;;;;;;;37.97;19.42;;;6.30;60.20;;;;;;5018785;28;20030;-80
2021/12/15 01:24:38;;;;;;;38.00;18.17;;;6.30;60.20;;;;;;5012785;28;20125;-81
2021/12/15 01:27:05;;;;;;;41.47;19.85;;;6.30;60.10;;;;;;5015596;28;20029;-80
2021/12/15 01:29:31;;;;;;;34.88;18.95;;;6.30;60.20;;;;;;5042434;28;20033;-80
2021/12/15 01:31:57;;;;;;;37.92;19.05;;;6.30;60.20;;;;;;5033838;28;20147;-80
2021/12/15 01:34:23;;;;;;;38.22;18.52;;;6.30;60.20;;;;;;5033647;28;20041;-80
2021/12/15 01:36:49;;;;;;;36.42;18.48;;;6.30;60.20;;;;;;5033542;28;20229;-80
2021/12/15 01:39:15;;;;;;;37.88;17.83;;;6.40;60.20;;;;;;5033903;28;20030;-80
2021/12/15 01:41:42;;;;;;;38.67;19.08;;;6.40;60.20;;;;;;5016783;28;20050;-80
2021/12/15 01:46:55;;;;;;;37.22;19.35;;;6.40;60.10;;;;;;5017334;28;20033;-81
2021/12/15 01:49:21;;;;;;;34.55;17.17;;;6.40;60.00;;;;;;5031711;28;20029;-80
2021/12/15 01:51:47;;;;;;;35.72;17.90;;;6.40;60.10;;;;;;5036614;28;20129;-79
2021/12/15 01:54:14;;;;;;;36.75;18.85;;;6.40;60.10;;;;;;5018120;28;20033;-80
2021/12/15 01:56:40;;;;;;;37.83;19.55;;;6.40;60.10;;;;;;5019270;28;20051;-80
2021/12/15 01:59:08;;;;;;;38.58;19.45;;;6.40;60.00;;;;;;5012354;28;20049;-77
2021/12/15 02:01:34;;;;;;;33.03;17.05;;;6.40;60.10;;;;;;5012630;28;20056;-77
2021/12/15 02:04:00;;;;;;;37.50;17.67;;;6.40;60.20;;;;;;5032265;28;20029;-77
2021/12/15 02:06:27;;;;;;;37.30;18.45;;;6.30;60.00;;;;;;5013003;28;20502;-77
2021/12/15 02:08:53;;;;;;;35.63;19.33;;;6.40;60.10;;;;;;5013176;28;20033;-77
2021/12/15 02:11:20;;;;;;;34.50;18.92;;;6.40;60.10;;;;;;5012626;28;20053;-77
2021/12/15 02:13:46;;;;;;;38.33;19.27;;;6.40;60.10;;;;;;5012990;28;20049;-77
2021/12/15 02:16:13;;;;;;;38.78;19.27;;;6.40;60.10;;;;;;5012175;28;20041;-77
2021/12/15 02:18:42;;;;;;;35.97;19.02;;;6.40;60.20;;;;;;5007760;28;20033;-77
2021/12/15 02:21:16;;;;;;;39.35;18.52;;;6.40;60.10;;;;;;5008742;28;20042;-76
2021/12/15 02:23:48;;;;;;;38.97;19.50;;;6.40;60.20;;;;;;5009208;28;20083;-77
2021/12/15 02:26:22;;;;;;;35.47;18.60;;;6.30;60.10;;;;;;5028476;28;20038;-77
2021/12/15 02:28:55;;;;;;;37.97;19.00;;;6.40;60.20;;;;;;5028308;28;20096;-77
2021/12/15 02:39:11;;;;;;;40.67;19.23;;;6.40;60.20;;;;;;5027627;28;20124;-77
2021/12/15 02:41:39;;;;;;;36.33;19.23;;;6.40;60.30;;;;;;5027081;28;20037;-77
2021/12/15 02:44:10;;;;;;;36.92;18.92;;;6.40;60.30;;;;;;5026021;28;20029;-77
2021/12/15 02:46:37;;;;;;;40.35;19.05;;;6.40;60.30;;;;;;5026898;28;20036;-77
2021/12/15 02:49:05;;;;;;;37.42;18.20;;;6.40;60.30;;;;;;5006838;28;20037;-77
2021/12/15 02:51:32;;;;;;;44.08;19.40;;;6.40;60.30;;;;;;5025528;28;20037;-77
2021/12/15 02:53:59;;;;;;;38.47;19.40;;;6.40;60.30;;;;;;5027204;28;20037;-77
2021/12/15 02:56:25;;;;;;;38.10;19.60;;;6.40;60.20;;;;;;5025808;28;20085;-78
2021/12/15 02:58:57;;;;;;;36.20;18.75;;;6.40;60.40;;;;;;5011591;28;20033;-78
2021/12/15 03:01:38;;;;;;;38.20;18.58;;;6.40;60.40;;;;;;5025970;28;20030;-78
2021/12/15 03:04:17;;;;;;;36.35;17.98;;;6.40;60.20;;;;;;5027780;28;20087;-78
2021/12/15 03:06:58;;;;;;;34.40;18.13;;;6.40;60.30;;;;;;5029326;28;20569;-75
2021/12/15 03:17:04;;;;;;;35.88;18.13;;;6.40;60.40;;;;;;5026970;28;20037;-75
2021/12/15 03:19:30;;;;;;;36.17;18.25;;;6.40;60.40;;;;;;5025543;28;20107;-77
2021/12/15 03:21:56;;;;;;;34.95;18.48;;;6.50;60.40;;;;;;5009716;28;20030;-77
2021/12/15 03:24:24;;;;;;;32.25;17.10;;;6.40;60.40;;;;;;5026165;28;20060;-77
2021/12/15 03:27:03;;;;;;;33.92;17.35;;;6.40;60.30;;;;;;5027679;28;20128;-77
2021/12/15 03:37:46;;;;;;;30.88;16.20;;;6.40;60.40;;;;;;5035606;28;20049;-80
2021/12/15 03:40:27;;;;;;;35.00;17.40;;;6.40;60.40;;;;;;5034778;28;20408;-82
2021/12/15 03:43:01;;;;;;;32.03;16.15;;;6.40;60.50;;;;;;5034407;28;20029;-82
2021/12/15 03:45:35;;;;;;;35.10;16.67;;;6.40;60.40;;;;;;5034783;28;20542;-82
2021/12/15 03:48:07;;;;;;;31.02;16.67;;;6.40;60.40;;;;;;5033934;28;20037;-82
2021/12/15 03:50:33;;;;;;;32.42;16.90;;;6.40;60.50;;;;;;5034618;28;20036;-82
2021/12/15 03:53:00;;;;;;;30.42;15.05;;;6.40;60.40;;;;;;5035098;28;20056;-82
2021/12/15 03:55:29;;;;;;;29.95;16.13;;;6.50;60.30;;;;;;5017689;28;20033;-81
2021/12/15 03:57:57;;;;;;;28.10;14.48;;;6.50;60.20;;;;;;5017652;28;20091;-81
2021/12/15 04:00:24;;;;;;;28.67;14.68;;;6.50;60.20;;;;;;5032348;28;20037;-81
2021/12/15 04:02:51;;;;;;;29.10;14.30;;;6.50;60.20;;;;;;5033499;28;20025;-81
2021/12/15 04:05:18;;;;;;;27.80;13.88;;;6.50;60.20;;;;;;5032711;28;20030;-82
2021/12/15 04:07:45;;;;;;;24.77;14.15;;;6.50;60.20;;;;;;5032892;28;20044;-80
2021/12/15 04:10:14;;;;;;;26.10;13.35;;;6.50;60.20;;;;;;5032537;28;20061;-80
2021/12/15 04:12:42;;;;;;;26.50;13.65;;;6.50;60.10;;;;;;5034460;28;20064;-80
2021/12/15 04:15:28;;;;;;;26.38;13.98;;;6.50;60.10;;;;;;5032396;28;20045;-80
2021/12/15 04:18:00;;;;;;;24.05;12.80;;;6.50;60.10;;;;;;5033858;28;20420;-81
2021/12/15 04:20:29;;;;;;;24.48;12.75;;;6.50;60.10;;;;;;5034440;28;20045;-81
2021/12/15 04:22:55;;;;;;;25.63;13.00;;;6.50;60.00;;;;;;5033439;28;20034;-81
2021/12/15 04:25:26;;;;;;;23.75;12.10;;;6.50;60.00;;;;;;5019121;28;20123;-80
2021/12/15 04:28:04;;;;;;;22.42;11.30;;;6.60;60.00;;;;;;5033379;28;20034;-83
2021/12/15 04:30:33;;;;;;;26.88;12.98;;;6.50;59.90;;;;;;5013799;28;20466;-82
2021/12/15 04:33:12;;;;;;;19.85;10.52;;;6.50;60.00;;;;;;5034892;28;20037;-82
2021/12/15 04:35:39;;;;;;;23.63;12.23;;;6.50;59.90;;;;;;5032835;28;20063;-81
2021/12/15 04:38:06;;;;;;;23.52;11.57;;;6.60;60.00;;;;;;5032927;28;20419;-83
2021/12/15 04:40:32;;;;;;;20.25;10.85;;;6.50;59.90;;;;;;5016008;28;20040;-83
2021/12/15 04:42:59;;;;;;;23.17;10.35;;;6.60;59.80;;;;;;5033639;28;20036;-83
2021/12/15 04:45:27;;;;;;;21.88;11.93;;;6.50;59.90;;;;;;5033929;28;20037;-80
2021/12/15 04:47:53;;;;;;;21.10;10.82;;;6.60;59.90;;;;;;5033724;28;20036;-82
2021/12/15 04:50:22;;;;;;;23.05;11.77;;;6.60;59.80;;;;;;5017145;28;20033;-82
2021/12/15 04:52:50;;;;;;;22.45;11.05;;;6.60;59.90;;;;;;5031119;28;20081;-82
2021/12/15 04:55:17;;;;;;;21.58;11.32;;;6.50;59.90;;;;;;5017931;28;20038;-82
2021/12/15 04:57:44;;;;;;;21.63;11.15;;;6.50;59.90;;;;;;5014852;28;20037;-81
2021/12/15 05:00:15;;;;;;;24.55;11.23;;;6.50;59.90;;;;;;5017476;28;20033;-82
2021/12/15 05:02:46;;;;;;;25.55;11.35;;;6.60;60.00;;;;;;5018914;28;20041;-82
2021/12/15 05:05:13;;;;;;;24.52;11.50;;;6.50;59.90;;;;;;5031502;28;20029;-82
2021/12/15 05:07:39;;;;;;;21.25;10.48;;;6.60;59.90;;;;;;5032932;28;20033;-83
2021/12/15 05:10:08;;;;;;;21.80;11.00;;;6.60;59.90;;;;;;5017762;28;20033;-81
2021/12/15 05:12:36;;;;;;;21.20;10.90;;;6.50;59.90;;;;;;5033013;28;20034;-83
2021/12/15 05:15:04;;;;;;;19.38;10.65;;;6.60;59.90;;;;;;5018473;28;20069;-82
2021/12/15 05:17:30;;;;;;;20.90;10.85;;;6.60;59.90;;;;;;5032639;28;20033;-81
2021/12/15 05:20:00;;;;;;;22.73;10.65;;;6.60;59.90;;;;;;5016129;28;20034;-81
2021/12/15 05:22:27;;;;;;;20.58;10.32;;;6.50;59.90;;;;;;5033118;28;20131;-82
2021/12/15 05:24:52;;;;;;;19.85;10.43;;;6.50;59.90;;;;;;5034038;28;20030;-82
2021/12/15 05:27:18;;;;;;;20.35;11.23;;;6.60;60.00;;;;;;5037348;28;20060;-81
2021/12/15 05:29:47;;;;;;;19.98;9.93;;;6.60;59.90;;;;;;5022205;28;20044;-81
2021/12/15 05:32:18;;;;;;;19.65;10.00;;;6.50;60.00;;;;;;5037287;28;20049;-82
2021/12/15 05:34:46;;;;;;;18.70;10.40;;;6.50;60.00;;;;;;5040017;28;20699;-80
2021/12/15 05:37:12;;;;;;;18.73;9.77;;;6.60;60.00;;;;;;5038380;28;20045;-81
2021/12/15 05:39:40;;;;;;;18.88;10.60;;;6.50;60.60;;;;;;5037348;28;20037;-81
2021/12/15 05:42:06;;;;;;;18.20;9.40;;;6.60;60.00;;;;;;5037085;28;20033;-81
2021/12/15 05:44:33;;;;;;;19.98;10.05;;;6.50;59.90;;;;;;5039493;28;20029;-82
2021/12/15 05:47:01;;;;;;;18.73;9.35;;;6.60;60.00;;;;;;5007268;28;20553;-81
2021/12/15 05:49:27;;;;;;;17.42;9.30;;;6.60;60.00;;;;;;5039700;28;20029;-81
2021/12/15 05:51:54;;;;;;;17.70;8.90;;;6.60;60.00;;;;;;5037685;28;20038;-81
2021/12/15 05:54:20;;;;;;;18.30;9.77;;;6.60;60.00;;;;;;5028064;28;20040;-81
2021/12/15 05:56:47;;;;;;;19.20;9.77;;;6.60;59.90;;;;;;5036396;28;20041;-81
2021/12/15 05:59:13;;;;;;;17.08;9.23;;;6.60;60.00;;;;;;5036637;28;20033;-81
2021/12/15 06:01:39;;;;;;;18.90;9.45;;;6.60;59.90;;;;;;5037329;28;20029;-82
2021/12/15 06:04:06;;;;;;;20.70;9.95;;;6.60;59.90;;;;;;5036630;28;20092;-82
2021/12/15 06:06:33;;;;;;;16.73;8.88;;;6.60;60.00;;;;;;5036575;28;20029;-81
2021/12/15 06:09:00;;;;;;;19.38;9.90;;;6.60;59.90;;;;;;5038398;28;20057;-82
2021/12/15 06:11:26;;;;;;;18.25;9.10;;;6.60;60.00;;;;;;5036304;28;20034;-82
2021/12/15 06:13:53;;;;;;;19.45;9.57;;;6.60;60.00;;;;;;5037913;28;20048;-80
2021/12/15 06:16:22;;;;;;;16.83;8.52;;;6.60;59.90;;;;;;5028146;28;20038;-79
2021/12/15 06:18:49;;;;;;;19.10;8.98;;;6.60;60.00;;;;;;5035126;28;20492;-80
2021/12/15 06:21:17;;;;;;;17.55;9.05;;;6.60;60.00;;;;;;5035153;28;20033;-80
2021/12/15 06:23:43;;;;;;;18.70;9.43;;;6.60;59.90;;;;;;5035093;28;20991;-79
2021/12/15 06:26:10;;;;;;;17.38;8.68;;;6.60;60.00;;;;;;5035675;28;20033;-81
2021/12/15 06:28:38;;;;;;;18.77;8.70;;;6.60;60.00;;;;;;5018824;28;20507;-80
2021/12/15 06:31:09;;;;;;;18.60;9.60;;;6.60;60.00;;;;;;5033029;28;20562;-80
2021/12/15 06:33:38;;;;;;;17.70;9.65;;;6.60;60.00;;;;;;5035379;28;20109;-79
2021/12/15 06:36:05;;;;;;;19.38;9.73;;;6.70;60.60;;;;;;5034092;28;20037;-80
2021/12/15 06:38:36;;;;;;;18.10;9.23;;;6.60;59.90;;;;;;5017199;28;20054;-80
2021/12/15 06:41:05;;;;;;;19.35;9.25;;;6.70;60.60;;;;;;5034873;28;20034;-80
2021/12/15 06:43:31;;;;;;;19.02;9.32;;;6.60;60.00;;;;;;5019895;28;20034;-80
2021/12/15 06:59:24;;;;;;;17.98;9.07;;;6.60;60.00;;;;;;5034961;28;20124;-79
2021/12/15 07:01:51;;;;;;;13.90;8.00;;;6.70;60.20;;;;;;5032667;28;20030;-80
2021/12/15 07:04:19;;;;;;;15.05;8.77;;;6.60;60.10;;;;;;5016309;28;20030;-80
2021/12/15 07:06:46;;;;;;;16.38;8.68;;;6.60;60.10;;;;;;5033556;28;20033;-79
2021/12/15 07:09:12;;;;;;;14.10;7.95;;;6.60;60.10;;;;;;5034513;28;20516;-80
2021/12/15 07:11:38;;;;;;;14.23;7.90;;;6.70;60.10;;;;;;5036848;28;20120;-81
2021/12/15 07:14:04;;;;;;;13.48;8.07;;;6.70;60.00;;;;;;5034290;28;20040;-81
2021/12/15 07:16:32;;;;;;;13.68;7.43;;;6.60;60.00;;;;;;5034556;28;20038;-79
2021/12/15 07:19:15;;;;;;;14.38;7.50;;;6.70;60.10;;;;;;5036182;28;20043;-80
2021/12/15 07:21:51;;;;;;;13.25;7.97;;;6.70;60.10;;;;;;5034497;28;20036;-80
2021/12/15 07:24:17;;;;;;;;;;;6.70;60.00;;;;;;5034181;28;20444;-81
2021/12/15 07:26:43;;;;;;;14.25;7.53;;;6.70;60.00;;;;;;5035333;28;19917;-80
2021/12/15 07:29:09;;;;;;;14.82;8.02;;;6.70;60.10;;;;;;5033990;28;20038;-80
2021/12/15 07:31:36;;;;;;;12.70;7.20;;;6.70;60.00;;;;;;5033481;28;20037;-80
2021/12/15 07:34:03;;;;;;;12.90;7.88;;;6.70;60.00;;;;;;5034359;28;20048;-80
2021/12/15 07:36:29;;;;;;;12.85;7.30;;;6.70;60.00;;;;;;5033602;28;20048;-80
2021/12/15 07:38:57;;;;;;;15.60;7.90;;;6.70;60.00;;;;;;5018133;28;20037;-81
2021/12/15 07:41:29;;;;;;;11.65;6.78;;;6.70;60.00;;;;;;5032808;28;20149;-79
2021/12/15 07:43:59;;;;;;;11.10;7.05;;;6.70;60.00;;;;;;5014979;28;20114;-80
2021/12/15 07:46:26;;;;;;;10.57;6.68;;;6.70;60.00;;;;;;5031860;28;20037;-79
2021/12/15 07:48:52;;;;;;;11.90;7.28;;;6.70;60.00;;;;;;5033070;28;20040;-80
2021/12/15 07:51:17;;;;;;;13.45;7.10;;;6.80;60.00;;;;;;5034707;28;20034;-85
2021/12/15 07:53:44;;;;;;;12.50;7.55;;;6.80;60.80;;;;;;5035236;28;20041;-85
2021/12/15 07:56:12;;;;;;;11.45;7.03;;;6.80;62.10;;;;;;4999040;28;20096;-86
2021/12/15 07:58:38;;;;;;;13.15;7.32;;;6.80;64.30;;;;;;5018014;28;20038;-85
2021/12/15 08:01:06;;;;;;;12.55;7.53;;;6.70;65.30;;;;;;5035187;28;20052;-84
2021/12/15 08:03:34;;;;;;;12.48;7.50;;;6.60;65.80;;;;;;5036237;28;20079;-84
2021/12/15 08:06:01;;;;;;;10.05;6.55;;;6.50;66.70;;;;;;5023390;28;20041;-85
2021/12/15 08:08:27;;;;;;;11.52;6.45;;;6.50;66.60;;;;;;5035140;28;20045;-83
2021/12/15 08:10:56;;;;;;;14.02;6.22;;;6.50;66.90;;;;;;5034781;28;20063;-83
2021/12/15 08:13:28;;;;;;;32.67;17.58;;;6.40;66.90;;;;;;5026025;28;20030;-88
2021/12/15 08:15:54;;;;;;;13.05;8.55;;;6.40;66.80;;;;;;5003748;28;20036;-87
2021/12/15 08:18:20;;;;;;;14.45;9.20;;;6.40;67.20;;;;;;5036144;28;20033;-87
2021/12/15 08:20:47;;;;;;;14.80;8.48;;;6.40;67.50;;;;;;5025326;28;20494;-87
2021/12/15 08:23:13;;;;;;;13.10;7.80;;;6.40;68.00;;;;;;5022445;28;20057;-83
2021/12/15 08:25:40;;;;;;;13.50;7.28;;;6.40;68.40;;;;;;5024031;28;20041;-85
2021/12/15 08:28:07;;;;;;;10.52;7.15;;;6.50;68.30;;;;;;5033864;28;20048;-83
2021/12/15 08:30:33;;;;;;;9.45;5.45;;;6.50;68.30;;;;;;5034050;28;20037;-88
2021/12/15 08:33:05;;;;;;;7.97;4.93;;;6.60;68.30;;;;;;5037944;28;20033;-88
2021/12/15 08:35:56;;;;;;;8.70;5.10;;;6.60;67.80;;;;;;5039302;28;20466;-87
2021/12/15 08:38:23;;;;;;;11.10;5.50;;;6.70;67.20;;;;;;5033431;28;20089;-88
2021/12/15 08:40:51;;;;;;;9.13;4.97;;;6.80;66.70;;;;;;5042451;28;20045;-87
2021/12/15 08:43:17;;;;;;;8.20;4.90;;;6.80;66.20;;;;;;5042152;28;20024;-85
2021/12/15 08:45:50;;;;;;;8.43;4.85;;;6.90;65.80;;;;;;5029340;28;20092;-82
2021/12/15 08:48:16;;;;;;;6.68;5.07;;;6.90;65.40;;;;;;5040157;28;20095;-90
2021/12/15 08:50:43;;;;;;;8.02;5.00;;;6.90;65.00;;;;;;5026175;28;20139;-90
2021/12/15 08:53:11;;;;;;;7.53;5.03;;;6.90;64.70;;;;;;5039228;28;20072;-92
2021/12/15 08:55:42;;;;;;;9.70;5.10;;;7.00;64.40;;;;;;5038939;28;20042;-85
2021/12/15 08:58:11;;;;;;;8.82;4.90;;;7.00;64.20;;;;;;5037270;28;20120;-87
2021/12/15 09:00:38;;;;;;;7.25;4.93;;;7.00;63.90;;;;;;5038727;28;20032;-90
2021/12/15 09:03:04;;;;;;;6.50;4.88;;;7.00;63.70;;;;;;5019746;28;20061;-93
2021/12/15 09:05:31;;;;;;;7.03;4.68;;;7.00;63.40;;;;;;5042349;28;20033;-90
2021/12/15 09:08:00;;;;;;;8.07;4.95;;;7.10;63.40;;;;;;5045350;28;20017;-88
2021/12/15 09:10:29;;;;;;;7.72;5.00;;;7.10;63.20;;;;;;5028479;28;20117;-89
2021/12/15 09:12:56;;;;;;;8.52;4.95;;;7.10;63.10;;;;;;5034592;28;20097;-93
2021/12/15 09:15:23;;;;;;;9.02;5.60;;;7.10;63.00;;;;;;5045147;28;20068;-91
2021/12/15 09:17:50;;;;;;;8.45;5.50;;;7.10;62.80;;;;;;5041597;28;20041;-90
2021/12/15 09:20:19;;;;;;;8.23;5.35;;;7.10;62.70;;;;;;5046068;28;20025;-92
2021/12/15 09:22:46;;;;;;;9.95;5.22;;;7.10;62.70;;;;;;5044302;28;20030;-91
2021/12/15 09:25:14;;;;;;;7.72;5.30;;;7.10;62.50;;;;;;5046668;28;20033;-90
2021/12/15 09:27:42;;;;;;;8.73;5.90;;;7.10;62.50;;;;;;5040420;28;20189;-90
2021/12/15 09:30:11;;;;;;;8.13;5.72;;;7.10;62.40;;;;;;5047691;28;20034;-90
2021/12/15 09:32:38;;;;;;;9.25;5.28;;;7.10;62.30;;;;;;5026109;28;20033;-92
2021/12/15 09:35:05;;;;;;;9.40;5.80;;;7.20;62.30;;;;;;5041277;28;20034;-93
2021/12/15 09:37:32;;;;;;;9.60;6.25;;;7.20;62.20;;;;;;5042287;28;20357;-91
2021/12/15 09:39:58;;;;;;;12.07;6.68;;;7.10;62.10;;;;;;5052930;28;20100;-90
2021/12/15 09:42:31;;;;;;;10.40;6.22;;;7.20;62.10;;;;;;5047309;28;20030;-90
2021/12/15 09:45:14;;;;;;;10.15;6.25;;;7.20;62.10;;;;;;5028164;28;20056;-92
2021/12/15 09:48:06;;;;;;;9.15;5.75;;;7.20;62.00;;;;;;5043859;28;20034;-88
2021/12/15 10:02:13;;;;;;;11.87;7.43;;;7.20;61.50;;;;;;5036692;28;20030;-91
2021/12/15 10:04:21;;;;;;;11.15;6.75;;;7.20;61.40;;;;;;5034266;28;20287;-93
2021/12/15 10:07:17;;;;;;;12.88;7.07;;;7.20;61.30;;;;;;5035825;28;20036;-93
2021/12/15 10:18:09;;;;;;;13.55;7.22;;;7.20;61.20;;;;;;5043386;28;20040;-91
2021/12/15 10:20:38;;;;;;;14.85;7.90;;;7.20;61.20;;;;;;5044967;28;20041;-93
2021/12/15 10:23:08;;;;;;;14.43;7.28;;;7.20;61.10;;;;;;5044478;28;20026;-88
2021/12/15 10:25:47;;;;;;;12.80;7.60;;;7.20;61.10;;;;;;5024121;28;20093;-87
2021/12/15 10:28:19;;;;;;;14.77;8.20;;;7.30;61.10;;;;;;5016054;28;20045;-84
2021/12/15 10:30:49;;;;;;;12.63;7.60;;;7.30;61.10;;;;;;5035724;28;20044;-79
2021/12/15 10:33:21;;;;;;;15.18;8.27;;;7.30;61.10;;;;;;5023973;28;20040;-84
2021/12/15 10:35:55;;;;;;;13.00;7.95;;;7.30;61.10;;;;;;5038103;28;20034;-81
2021/12/15 10:38:29;;;;;;;15.18;8.15;;;7.30;61.10;;;;;;5037184;28;20133;-80
2021/12/15 10:41:13;;;;;;;13.65;8.05;;;7.30;61.10;;;;;;5027086;28;20485;-83
2021/12/15 10:43:44;;;;;;;13.77;8.15;;;7.30;61.20;;;;;;5041053;28;20037;-80
2021/12/15 10:46:22;;;;;;;12.05;6.90;;;7.30;61.40;;;;;;5031521;28;20029;-79
2021/12/15 10:48:57;;;;;;;12.95;7.72;;;7.30;61.40;;;;;;5032652;28;20425;-79
2021/12/15 10:51:33;;;;;;;12.93;6.87;;;7.30;61.60;;;;;;5036840;28;20567;-80
2021/12/15 10:54:18;;;;;;;11.75;6.70;;;7.30;62.10;;;;;;5025156;28;20131;-79
2021/12/15 10:57:00;;;;;;;12.65;6.43;;;7.40;62.70;;;;;;5030038;28;20033;-80
2021/12/15 10:59:29;;;;;;;12.05;6.00;;;7.40;63.10;;;;;;5031003;28;20072;-78
2021/12/15 11:02:17;;;;;;;10.57;5.80;;;7.40;63.40;;;;;;5033021;28;20496;-79
2021/12/15 11:05:01;;;;;;;13.35;6.63;;;7.40;63.70;;;;;;5026890;28;20037;-79
2021/12/15 11:07:30;;;;;;;12.40;6.90;;;7.40;63.80;;;;;;5025852;28;20045;-78
2021/12/15 11:10:12;;;;;;;12.35;6.80;;;7.40;63.90;;;;;;5024205;28;20040;-78
2021/12/15 11:13:00;;;;;;;15.35;8.30;;;7.50;63.90;;;;;;5026069;28;20473;-79
2021/12/15 11:15:46;;;;;;;21.45;7.90;;;7.40;63.80;;;;;;5010824;28;20048;-77
2021/12/15 11:18:25;;;;;;;15.10;7.95;;;7.50;63.70;;;;;;5025447;28;20504;-79
2021/12/15 11:20:55;;;;;;;15.93;8.65;;;7.50;63.60;;;;;;5009556;28;20037;-78
2021/12/15 11:23:26;;;;;;;13.10;7.47;;;7.50;63.50;;;;;;5024873;28;20412;-79
2021/12/15 11:25:58;;;;;;;17.02;8.60;;;7.50;63.50;;;;;;5025165;28;20055;-79
2021/12/15 11:28:25;;;;;;;16.70;8.27;;;7.50;63.40;;;;;;5027512;28;20041;-79
2021/12/15 11:31:14;;;;;;;16.92;8.27;;;7.50;63.40;;;;;;5027300;28;20033;-80
2021/12/15 11:33:53;;;;;;;15.52;8.38;;;7.50;63.30;;;;;;5030601;28;20431;-82
2021/12/15 11:36:25;;;;;;;21.77;9.65;;;7.50;63.30;;;;;;5031060;28;20045;-80
2021/12/15 11:38:53;;;;;;;17.70;9.10;;;7.50;63.30;;;;;;5031156;28;20381;-83
2021/12/15 11:41:33;;;;;;;19.30;9.02;;;7.50;63.30;;;;;;5020692;28;20039;-84
2021/12/15 11:44:09;;;;;;;16.38;8.85;;;7.50;63.30;;;;;;5037331;28;20633;-88
2021/12/15 11:46:36;;;;;;;15.18;8.05;;;7.50;63.40;;;;;;5035902;28;20025;-93
2021/12/15 11:49:12;;;;;;;19.02;8.63;;;7.60;63.60;;;;;;5037655;28;20018;-85
2021/12/15 11:51:48;;;;;;;14.43;7.63;;;7.60;64.30;;;;;;5034937;28;20157;-86
2021/12/15 11:54:32;;;;;;;14.77;7.57;;;7.70;65.30;;;;;;5034527;28;20045;-85
2021/12/15 11:57:01;;;;;;;11.63;5.82;;;7.70;66.10;;;;;;5035994;28;20030;-83
2021/12/15 11:59:37;;;;;;;14.82;5.65;;;7.80;73.30;;;;;;5034607;28;20083;-84
2021/12/15 12:02:06;;;;;;;13.88;6.30;;;7.80;72.50;;;;;;5035020;28;20037;-83
2021/12/15 12:04:42;;;;;;;15.45;6.55;;;7.90;71.70;;;;;;5015911;28;20068;-84
2021/12/15 12:07:34;;;;;;;12.20;5.90;;;8.00;71.20;;;;;;5034238;28;20041;-84
2021/12/15 12:10:12;;;;;;;14.95;5.95;;;8.00;70.80;;;;;;5010191;28;20101;-86
2021/12/15 12:12:49;;;;;;;14.85;5.80;;;8.00;70.60;;;;;;5034876;28;20065;-87
2021/12/15 12:15:17;;;;;;;12.88;6.00;;;8.00;70.40;;;;;;5036262;28;20033;-85
2021/12/15 12:17:47;;;;;;;13.77;6.93;;;8.00;70.20;;;;;;5033814;28;20033;-84
2021/12/15 12:20:17;;;;;;;13.02;6.43;;;8.10;70.30;;;;;;5033802;28;20025;-84
2021/12/15 12:22:45;;;;;;;11.68;6.50;;;8.10;70.40;;;;;;5033799;28;20116;-84
2021/12/15 12:25:18;;;;;;;11.98;6.55;;;8.10;70.40;;;;;;5032864;28;20037;-83
2021/12/15 12:27:45;;;;;;;12.88;6.53;;;8.10;70.40;;;;;;5014485;28;20095;-84
2021/12/15 12:30:15;;;;;;;18.20;6.90;;;8.10;70.60;;;;;;5018687;28;20052;-84
2021/12/15 12:32:41;;;;;;;11.98;6.70;;;8.20;70.80;;;;;;5016940;28;20500;-85
2021/12/15 12:35:10;;;;;;;11.98;6.63;;;8.20;70.70;;;;;;5017185;28;20041;-83
2021/12/15 12:37:38;;;;;;;14.48;6.93;;;8.20;70.90;;;;;;5034622;28;20107;-83
2021/12/15 12:40:17;;;;;;;13.15;6.68;;;8.20;71.00;;;;;;5015096;28;20026;-83
2021/12/15 12:42:43;;;;;;;12.57;6.65;;;8.30;71.10;;;;;;5020233;28;20034;-83
2021/12/15 12:45:39;;;;;;;11.68;5.60;;;8.30;71.00;;;;;;5018148;28;20033;-85
2021/12/15 12:48:45;;;;;;;11.90;5.97;;;8.30;71.00;;;;;;5016007;28;20048;-81
2021/12/15 12:57:57;;;;;;;12.60;5.90;;;8.30;71.00;;;;;;5033423;28;20276;-81
2021/12/15 13:00:28;;;;;;;15.48;7.63;;;8.30;70.40;;;;;;5035426;28;20037;-80
2021/12/15 13:03:24;;;;;;;13.88;7.07;;;8.30;69.70;;;;;;5023581;28;20036;-81
2021/12/15 13:06:02;;;;;;;12.43;6.68;;;8.30;69.80;;;;;;5029386;28;20059;-78
2021/12/15 13:08:47;;;;;;;14.35;7.75;;;8.30;70.40;;;;;;5017972;28;20130;-78
2021/12/15 13:11:19;;;;;;;16.88;7.65;;;8.30;70.40;;;;;;5032813;28;20044;-81
2021/12/15 13:14:10;;;;;;;12.20;7.35;;;8.30;69.70;;;;;;5028704;28;20076;-78
2021/12/15 13:16:42;;;;;;;15.60;8.25;;;8.30;69.10;;;;;;5022331;28;20065;-78
2021/12/15 13:19:20;;;;;;;13.57;7.72;;;8.30;68.20;;;;;;5016368;28;20095;-79
2021/12/15 13:30:54;;;;;;;;;;;8.30;65.70;;;;;;5002891;28;20428;-80
2021/12/15 13:33:37;;;;;;;14.07;7.40;;;8.20;65.30;;;;;;5026341;28;19980;-82
2021/12/15 13:36:17;;;;;;;10.88;6.85;;;8.20;65.00;;;;;;5025543;28;20033;-79
2021/12/15 13:38:43;;;;;;;14.10;8.07;;;8.20;64.70;;;;;;5026930;28;20056;-82
2021/12/15 13:41:20;;;;;;;13.43;8.07;;;8.10;64.50;;;;;;5035869;28;20041;-80
2021/12/15 13:44:04;;;;;;;12.88;6.93;;;8.10;64.30;;;;;;5030065;28;20033;-77
2021/12/15 13:46:39;;;;;;;13.75;7.45;;;8.10;64.10;;;;;;5011633;28;20455;-80
2021/12/15 13:49:09;;;;;;;11.15;6.95;;;8.10;64.00;;;;;;5035562;28;20033;-77
2021/12/15 13:52:09;;;;;;;11.13;7.03;;;8.10;64.00;;;;;;5034015;28;20302;-80
2021/12/15 13:54:35;;;;;;;11.02;6.43;;;8.10;63.80;;;;;;5032231;28;20047;-80
2021/12/15 13:57:15;;;;;;;11.13;6.82;;;8.10;63.70;;;;;;5032683;28;20504;-79
2021/12/15 13:59:54;;;;;;;11.45;6.97;;;8.00;63.60;;;;;;5017495;28;20033;-81
2021/12/15 14:02:28;;;;;;;12.90;6.60;;;8.00;63.50;;;;;;5033122;28;20114;-80
2021/12/15 14:05:06;;;;;;;9.73;6.25;;;8.00;63.40;;;;;;5042412;28;20034;-81
2021/12/15 14:07:51;;;;;;;10.15;6.70;;;8.00;63.40;;;;;;5039375;28;20033;-81
2021/12/15 14:10:39;;;;;;;10.95;6.90;;;8.00;63.30;;;;;;5036738;28;20112;-81
2021/12/15 14:13:06;;;;;;;9.20;6.28;;;7.90;63.20;;;;;;5026289;28;20030;-81
2021/12/15 14:15:38;;;;;;;11.20;6.10;;;7.90;63.10;;;;;;5040484;28;20040;-80
2021/12/15 14:18:28;;;;;;;11.88;6.93;;;7.90;63.30;;;;;;5029530;28;20097;-85
2021/12/15 14:20:56;;;;;;;11.30;6.53;;;7.90;64.50;;;;;;5048832;28;20040;-86
2021/12/15 14:23:30;;;;;;;10.82;5.93;;;8.00;66.10;;;;;;5048380;28;20117;-90
2021/12/15 14:25:57;;;;;;;10.68;7.10;;;8.00;67.40;;;;;;5041561;28;20057;-88
2021/12/15 14:28:36;;;;;;;8.55;6.20;;;8.00;68.20;;;;;;5032254;28;20072;-92
2021/12/15 14:31:15;;;;;;;10.35;6.43;;;8.00;68.60;;;;;;5035451;28;20055;-86